地図

経路データ

SID SEASON NUMBER BASIN SUBBASIN NAME ISO_TIME NATURE LAT LON WMO_WIND WMO_PRES WMO_AGENCY TRACK_TYPE DIST2LAND LANDFALL IFLAG USA_AGENCY USA_ATCF_ID USA_LAT USA_LON USA_RECORD USA_STATUS USA_WIND USA_PRES USA_SSHS USA_R34_NE USA_R34_SE USA_R34_SW USA_R34_NW USA_R50_NE USA_R50_SE USA_R50_SW USA_R50_NW USA_R64_NE USA_R64_SE USA_R64_SW USA_R64_NW USA_POCI USA_ROCI USA_RMW USA_EYE TOKYO_LAT TOKYO_LON TOKYO_GRADE TOKYO_WIND TOKYO_PRES TOKYO_R50_DIR TOKYO_R50_LONG TOKYO_R50_SHORT TOKYO_R30_DIR TOKYO_R30_LONG TOKYO_R30_SHORT TOKYO_LAND CMA_LAT CMA_LON CMA_CAT CMA_WIND CMA_PRES HKO_LAT HKO_LON HKO_CAT HKO_WIND HKO_PRES NEWDELHI_LAT NEWDELHI_LON NEWDELHI_GRADE NEWDELHI_WIND NEWDELHI_PRES NEWDELHI_CI NEWDELHI_DP NEWDELHI_POCI REUNION_LAT REUNION_LON REUNION_TYPE REUNION_WIND REUNION_PRES REUNION_TNUM REUNION_CI REUNION_RMW REUNION_R34_NE REUNION_R34_SE REUNION_R34_SW REUNION_R34_NW REUNION_R50_NE REUNION_R50_SE REUNION_R50_SW REUNION_R50_NW REUNION_R64_NE REUNION_R64_SE REUNION_R64_SW REUNION_R64_NW BOM_LAT BOM_LON BOM_TYPE BOM_WIND BOM_PRES BOM_TNUM BOM_CI BOM_RMW BOM_R34_NE BOM_R34_SE BOM_R34_SW BOM_R34_NW BOM_R50_NE BOM_R50_SE BOM_R50_SW BOM_R50_NW BOM_R64_NE BOM_R64_SE BOM_R64_SW BOM_R64_NW BOM_ROCI BOM_POCI BOM_EYE BOM_POS_METHOD BOM_PRES_METHOD NADI_LAT NADI_LON NADI_CAT NADI_WIND NADI_PRES WELLINGTON_LAT WELLINGTON_LON WELLINGTON_WIND WELLINGTON_PRES DS824_LAT DS824_LON DS824_STAGE DS824_WIND DS824_PRES TD9636_LAT TD9636_LON TD9636_STAGE TD9636_WIND TD9636_PRES TD9635_LAT TD9635_LON TD9635_WIND TD9635_PRES TD9635_ROCI NEUMANN_LAT NEUMANN_LON NEUMANN_CLASS NEUMANN_WIND NEUMANN_PRES MLC_LAT MLC_LON MLC_CLASS MLC_WIND MLC_PRES USA_GUST BOM_GUST BOM_GUST_PER REUNION_GUST REUNION_GUST_PER USA_SEAHGT USA_SEARAD_NE USA_SEARAD_SE USA_SEARAD_SW USA_SEARAD_NW STORM_SPEED STORM_DIR
1879228N15307 1879 14 NA NA NOT_NAMED 1879-08-15 12:00:00 TS 14.5000 -53.5000 main 918 885 _____________O -1 14.5000 -53.5000 TS 40 9 283
1879228N15307 1879 14 NA NA NOT_NAMED 1879-08-15 15:00:00 TS 14.6002 -53.9499 main 885 844 _____________P -1 14.6002 -53.9499 TS 40 9 283
1879228N15307 1879 14 NA NA NOT_NAMED 1879-08-15 18:00:00 TS 14.7000 -54.4000 main 844 814 _____________O -1 14.7000 -54.4000 TS 40 9 283
1879228N15307 1879 14 NA NA NOT_NAMED 1879-08-15 21:00:00 TS 14.7999 -54.8500 main 805 776 _____________P -1 14.7999 -54.8500 TS 40 9 283
1879228N15307 1879 14 NA NA NOT_NAMED 1879-08-16 00:00:00 TS 14.9000 -55.3000 main 776 749 _____________O -1 14.9000 -55.3000 TS 40 9 283
1879228N15307 1879 14 NA NA NOT_NAMED 1879-08-16 03:00:00 TS 14.9999 -55.7500 main 741 716 _____________P -1 14.9999 -55.7500 TS 40 9 283
1879228N15307 1879 14 NA NA NOT_NAMED 1879-08-16 06:00:00 TS 15.1000 -56.2000 main 716 693 _____________O -1 15.1000 -56.2000 TS 40 9 283
1879228N15307 1879 14 NA NA NOT_NAMED 1879-08-16 09:00:00 TS 15.1999 -56.6500 main 686 666 _____________P -1 15.1999 -56.6500 TS 40 9 283
1879228N15307 1879 14 NA NA NOT_NAMED 1879-08-16 12:00:00 TS 15.3000 -57.1000 main 666 648 _____________O -1 15.3000 -57.1000 TS 40 9 283
1879228N15307 1879 14 NA NA NOT_NAMED 1879-08-16 15:00:00 TS 15.3999 -57.5500 main 642 628 _____________P -1 15.3999 -57.5500 TS 40 9 283
1879228N15307 1879 14 NA NA NOT_NAMED 1879-08-16 18:00:00 TS 15.5000 -58.0000 main 628 616 _____________O -1 15.5000 -58.0000 TS 40 9 283
1879228N15307 1879 14 NA NA NOT_NAMED 1879-08-16 21:00:00 TS 15.5999 -58.4500 main 611 602 _____________P -1 15.5999 -58.4500 TS 40 9 283
1879228N15307 1879 14 NA NA NOT_NAMED 1879-08-17 00:00:00 TS 15.7000 -58.9000 main 604 596 _____________O -1 15.7000 -58.9000 TS 40 9 283
1879228N15307 1879 14 NA NA NOT_NAMED 1879-08-17 03:00:00 TS 15.7999 -59.3500 main 596 590 _____________P -1 15.7999 -59.3500 TS 40 9 283
1879228N15307 1879 14 NA NA NOT_NAMED 1879-08-17 06:00:00 TS 15.9000 -59.8000 main 596 592 _____________O -1 15.9000 -59.8000 TS 40 9 283
1879228N15307 1879 14 NA CS NOT_NAMED 1879-08-17 09:00:00 TS 15.9999 -60.2500 main 598 571 _____________P -1 15.9999 -60.2500 TS 40 9 283
1879228N15307 1879 14 NA CS NOT_NAMED 1879-08-17 12:00:00 TS 16.1000 -60.7000 main 571 527 _____________O -1 16.1000 -60.7000 TS 40 9 283
1879228N15307 1879 14 NA CS NOT_NAMED 1879-08-17 15:00:00 TS 16.1999 -61.1500 main 518 475 _____________P -1 16.1999 -61.1500 TS 37 9 283
1879228N15307 1879 14 NA CS NOT_NAMED 1879-08-17 18:00:00 TS 16.3000 -61.6000 main 475 432 _____________O -1 16.3000 -61.6000 TS 35 9 283
1879228N15307 1879 14 NA CS NOT_NAMED 1879-08-17 21:00:00 TS 16.3924 -62.0426 main 432 380 _____________P -1 16.3924 -62.0426 TS 35 9 283
1879228N15307 1879 14 NA CS NOT_NAMED 1879-08-18 00:00:00 TS 16.5000 -62.5000 main 380 328 _____________O -1 16.5000 -62.5000 TS 35 10 286
1879228N15307 1879 14 NA CS NOT_NAMED 1879-08-18 03:00:00 TS 16.6500 -62.9999 main 328 272 _____________P -1 16.6500 -62.9999 TS 35 10 287
1879228N15307 1879 14 NA CS NOT_NAMED 1879-08-18 06:00:00 TS 16.8000 -63.5000 main 272 231 _____________O -1 16.8000 -63.5000 TS 35 10 286
1879228N15307 1879 14 NA CS NOT_NAMED 1879-08-18 09:00:00 TS 16.9074 -63.9576 main 223 184 _____________P -1 16.9074 -63.9576 TS 32 9 283
1879228N15307 1879 14 NA CS NOT_NAMED 1879-08-18 12:00:00 TS 17.0000 -64.4000 main 184 146 _____________O -1 17.0000 -64.4000 TD 30 9 283
1879228N15307 1879 14 NA CS NOT_NAMED 1879-08-18 15:00:00 TS 17.0977 -64.8474 main 146 104 _____________P -1 17.0977 -64.8474 TD 27 9 283
1879228N15307 1879 14 NA CS NOT_NAMED 1879-08-18 18:00:00 TS 17.2000 -65.3000 main 104 _____________O -1 17.2000 -65.3000 TD 25 9 283

IBTrACS Databaseについて

本データベースは、米国NOAAが公開する1842年以降の世界の熱帯低気圧のベストトラックデータアーカイブInternational Best Track Archive for Climate Stewardship (IBTrACS)を、ウェブで閲覧しやすい形式に変換したものです。

最終更新日:2021-10-08